sensor_id;sensor_type;location;lat;lon;timestamp;pressure;altitude;pressure_sealevel;temperature;humidity
18985;BME280;9626;52.552;13.436;2023-02-03T00:00:07;101536.94;;;1.84;100.00
18985;BME280;9626;52.552;13.436;2023-02-03T00:02:33;101524.75;;;1.83;100.00
18985;BME280;9626;52.552;13.436;2023-02-03T00:05:00;101509.13;;;1.84;100.00
18985;BME280;9626;52.552;13.436;2023-02-03T00:07:26;101506.47;;;1.83;100.00
18985;BME280;9626;52.552;13.436;2023-02-03T00:09:54;101505.56;;;1.82;100.00
18985;BME280;9626;52.552;13.436;2023-02-03T00:12:20;101488.94;;;1.79;100.00
18985;BME280;9626;52.552;13.436;2023-02-03T00:14:46;101501.06;;;1.77;100.00
18985;BME280;9626;52.552;13.436;2023-02-03T00:17:12;101487.25;;;1.81;100.00
18985;BME280;9626;52.552;13.436;2023-02-03T00:19:40;101478.50;;;1.79;100.00
18985;BME280;9626;52.552;13.436;2023-02-03T00:22:06;101472.19;;;1.72;100.00
18985;BME280;9626;52.552;13.436;2023-02-03T00:24:32;101466.94;;;1.71;100.00
18985;BME280;9626;52.552;13.436;2023-02-03T00:26:58;101454.72;;;1.69;100.00
18985;BME280;9626;52.552;13.436;2023-02-03T00:29:24;101462.56;;;1.69;100.00
18985;BME280;9626;52.552;13.436;2023-02-03T00:31:53;101443.31;;;1.67;100.00
18985;BME280;9626;52.552;13.436;2023-02-03T00:34:20;101438.91;;;1.65;100.00
18985;BME280;9626;52.552;13.436;2023-02-03T00:36:46;101439.81;;;1.65;100.00
18985;BME280;9626;52.552;13.436;2023-02-03T00:39:15;101432.66;;;1.58;100.00
18985;BME280;9626;52.552;13.436;2023-02-03T00:41:42;101431.94;;;1.64;100.00
18985;BME280;9626;52.552;13.436;2023-02-03T00:44:08;101420.53;;;1.62;100.00
18985;BME280;9626;52.552;13.436;2023-02-03T00:46:34;101404.00;;;1.61;100.00
18985;BME280;9626;52.552;13.436;2023-02-03T00:49:03;101409.97;;;1.57;100.00
18985;BME280;9626;52.552;13.436;2023-02-03T00:51:29;101402.16;;;1.57;100.00
18985;BME280;9626;52.552;13.436;2023-02-03T00:53:55;101420.53;;;1.62;100.00
18985;BME280;9626;52.552;13.436;2023-02-03T00:56:22;101414.41;;;1.60;100.00
18985;BME280;9626;52.552;13.436;2023-02-03T00:58:48;101418.72;;;1.59;100.00
18985;BME280;9626;52.552;13.436;2023-02-03T01:01:14;101417.78;;;1.56;100.00
18985;BME280;9626;52.552;13.436;2023-02-03T01:03:40;101416.16;;;1.61;100.00
18985;BME280;9626;52.552;13.436;2023-02-03T01:06:20;101409.19;;;1.60;100.00
18985;BME280;9626;52.552;13.436;2023-02-03T01:08:47;101406.41;;;1.55;100.00
18985;BME280;9626;52.552;13.436;2023-02-03T01:11:16;101400.09;;;1.47;100.00
18985;BME280;9626;52.552;13.436;2023-02-03T01:13:43;101396.69;;;1.49;100.00
18985;BME280;9626;52.552;13.436;2023-02-03T01:16:11;101402.75;;;1.48;100.00
18985;BME280;9626;52.552;13.436;2023-02-03T01:18:38;101401.91;;;1.49;100.00
18985;BME280;9626;52.552;13.436;2023-02-03T01:21:12;101393.28;;;1.52;100.00
18985;BME280;9626;52.552;13.436;2023-02-03T01:23:39;101392.34;;;1.50;100.00
18985;BME280;9626;52.552;13.436;2023-02-03T01:26:07;101371.47;;;1.50;100.00
18985;BME280;9626;52.552;13.436;2023-02-03T01:28:34;101380.00;;;1.44;100.00
18985;BME280;9626;52.552;13.436;2023-02-03T01:31:12;101371.13;;;1.38;100.00
18985;BME280;9626;52.552;13.436;2023-02-03T01:33:39;101358.94;;;1.37;100.00
18985;BME280;9626;52.552;13.436;2023-02-03T01:36:07;101353.72;;;1.37;100.00
18985;BME280;9626;52.552;13.436;2023-02-03T01:38:35;101355.38;;;1.34;100.00
18985;BME280;9626;52.552;13.436;2023-02-03T01:41:02;101343.28;;;1.37;100.00
18985;BME280;9626;52.552;13.436;2023-02-03T01:43:37;101349.94;;;1.27;100.00
18985;BME280;9626;52.552;13.436;2023-02-03T01:48:46;101328.19;;;1.26;100.00
18985;BME280;9626;52.552;13.436;2023-02-03T01:51:13;101318.50;;;1.22;100.00
18985;BME280;9626;52.552;13.436;2023-02-03T01:53:39;101313.25;;;1.21;100.00
18985;BME280;9626;52.552;13.436;2023-02-03T01:56:07;101305.50;;;1.24;100.00
18985;BME280;9626;52.552;13.436;2023-02-03T01:58:36;101297.66;;;1.24;100.00
18985;BME280;9626;52.552;13.436;2023-02-03T02:01:04;101301.03;;;1.20;100.00
18985;BME280;9626;52.552;13.436;2023-02-03T02:03:38;101301.06;;;1.21;100.00
18985;BME280;9626;52.552;13.436;2023-02-03T02:06:08;101301.75;;;1.14;100.00
18985;BME280;9626;52.552;13.436;2023-02-03T02:08:36;101298.25;;;1.13;100.00
18985;BME280;9626;52.552;13.436;2023-02-03T02:11:03;101285.28;;;1.16;100.00
18985;BME280;9626;52.552;13.436;2023-02-03T02:13:32;101280.13;;;1.18;100.00
18985;BME280;9626;52.552;13.436;2023-02-03T02:27:45;101226.88;;;1.11;100.00
18985;BME280;9626;52.552;13.436;2023-02-03T02:30:51;101220.00;;;1.13;100.00
18985;BME280;9626;52.552;13.436;2023-02-03T02:36:15;101195.31;;;1.02;100.00
18985;BME280;9626;52.552;13.436;2023-02-03T02:39:01;101187.47;;;1.00;100.00
18985;BME280;9626;52.552;13.436;2023-02-03T02:41:38;101178.47;;;0.89;100.00
18985;BME280;9626;52.552;13.436;2023-02-03T02:44:16;101166.34;;;0.91;100.00
18985;BME280;9626;52.552;13.436;2023-02-03T02:46:52;101159.38;;;0.90;100.00
18985;BME280;9626;52.552;13.436;2023-02-03T02:49:27;101151.56;;;0.90;100.00
18985;BME280;9626;52.552;13.436;2023-02-03T02:51:56;101157.41;;;0.83;100.00
18985;BME280;9626;52.552;13.436;2023-02-03T02:54:26;101154.84;;;0.84;100.00
18985;BME280;9626;52.552;13.436;2023-02-03T02:56:57;101153.06;;;0.82;100.00
18985;BME280;9626;52.552;13.436;2023-02-03T02:59:24;101131.28;;;0.80;100.00
18985;BME280;9626;52.552;13.436;2023-02-03T03:01:50;101128.66;;;0.80;100.00
18985;BME280;9626;52.552;13.436;2023-02-03T03:04:21;101111.94;;;0.72;100.00
18985;BME280;9626;52.552;13.436;2023-02-03T03:06:57;101111.84;;;0.69;100.00
18985;BME280;9626;52.552;13.436;2023-02-03T03:09:29;101115.19;;;0.63;100.00
18985;BME280;9626;52.552;13.436;2023-02-03T03:12:12;101111.66;;;0.62;100.00
18985;BME280;9626;52.552;13.436;2023-02-03T03:14:42;101108.41;;;0.70;100.00
18985;BME280;9626;52.552;13.436;2023-02-03T03:17:13;101098.84;;;0.70;100.00
18985;BME280;9626;52.552;13.436;2023-02-03T03:19:47;101092.00;;;0.74;100.00
18985;BME280;9626;52.552;13.436;2023-02-03T03:22:17;101066.88;;;0.77;100.00
18985;BME280;9626;52.552;13.436;2023-02-03T03:24:53;101066.81;;;0.74;100.00
18985;BME280;9626;52.552;13.436;2023-02-03T03:27:27;101054.75;;;0.78;100.00
18985;BME280;9626;52.552;13.436;2023-02-03T03:30:07;101048.69;;;0.79;100.00
18985;BME280;9626;52.552;13.436;2023-02-03T03:32:35;101047.91;;;0.83;100.00
18985;BME280;9626;52.552;13.436;2023-02-03T03:35:03;101033.94;;;0.79;100.00
18985;BME280;9626;52.552;13.436;2023-02-03T03:37:42;101044.47;;;0.84;100.00
18985;BME280;9626;52.552;13.436;2023-02-03T03:40:15;101041.09;;;0.88;100.00
18985;BME280;9626;52.552;13.436;2023-02-03T03:42:50;101028.91;;;0.87;100.00
18985;BME280;9626;52.552;13.436;2023-02-03T03:45:42;101034.28;;;0.93;100.00
18985;BME280;9626;52.552;13.436;2023-02-03T03:48:33;101022.09;;;0.94;100.00
18985;BME280;9626;52.552;13.436;2023-02-03T03:51:07;101008.28;;;0.96;100.00
18985;BME280;9626;52.552;13.436;2023-02-03T03:53:37;101009.06;;;0.94;100.00
18985;BME280;9626;52.552;13.436;2023-02-03T03:56:05;101018.78;;;0.99;100.00
18985;BME280;9626;52.552;13.436;2023-02-03T03:58:36;100996.25;;;1.03;100.00
18985;BME280;9626;52.552;13.436;2023-02-03T04:01:05;100994.63;;;1.07;100.00
18985;BME280;9626;52.552;13.436;2023-02-03T04:03:46;101039.09;;;1.13;100.00
18985;BME280;9626;52.552;13.436;2023-02-03T04:06:13;101014.88;;;1.18;100.00
18985;BME280;9626;52.552;13.436;2023-02-03T04:08:40;100997.53;;;1.19;100.00
18985;BME280;9626;52.552;13.436;2023-02-03T04:11:06;100994.06;;;1.20;100.00
18985;BME280;9626;52.552;13.436;2023-02-03T04:13:32;100982.88;;;1.24;100.00
18985;BME280;9626;52.552;13.436;2023-02-03T04:15:58;100994.28;;;1.31;100.00
18985;BME280;9626;52.552;13.436;2023-02-03T04:18:24;100981.56;;;1.43;100.00
18985;BME280;9626;52.552;13.436;2023-02-03T04:20:50;100971.63;;;1.66;100.00
18985;BME280;9626;52.552;13.436;2023-02-03T04:23:16;100969.91;;;1.68;100.00
18985;BME280;9626;52.552;13.436;2023-02-03T04:25:42;100957.06;;;1.79;100.00
18985;BME280;9626;52.552;13.436;2023-02-03T04:28:08;100945.72;;;1.77;100.00
18985;BME280;9626;52.552;13.436;2023-02-03T04:30:34;100946.59;;;1.78;100.00
18985;BME280;9626;52.552;13.436;2023-02-03T04:33:00;100944.94;;;1.81;100.00
18985;BME280;9626;52.552;13.436;2023-02-03T04:35:26;100959.84;;;1.87;100.00
18985;BME280;9626;52.552;13.436;2023-02-03T04:37:52;100945.28;;;2.00;100.00
18985;BME280;9626;52.552;13.436;2023-02-03T04:40:18;100917.47;;;2.02;100.00
18985;BME280;9626;52.552;13.436;2023-02-03T04:42:44;100918.56;;;2.13;100.00
18985;BME280;9626;52.552;13.436;2023-02-03T04:45:11;100907.38;;;2.22;100.00
18985;BME280;9626;52.552;13.436;2023-02-03T04:47:37;100910.00;;;2.22;100.00
18985;BME280;9626;52.552;13.436;2023-02-03T04:50:04;100906.53;;;2.23;100.00
18985;BME280;9626;52.552;13.436;2023-02-03T04:52:30;100897.84;;;2.24;100.00
18985;BME280;9626;52.552;13.436;2023-02-03T04:54:56;100886.59;;;2.28;100.00
18985;BME280;9626;52.552;13.436;2023-02-03T04:57:22;100880.66;;;2.39;100.00
18985;BME280;9626;52.552;13.436;2023-02-03T04:59:48;100876.38;;;2.44;100.00
18985;BME280;9626;52.552;13.436;2023-02-03T05:02:14;100886.16;;;2.54;100.00
18985;BME280;9626;52.552;13.436;2023-02-03T05:04:40;100877.56;;;2.61;100.00
18985;BME280;9626;52.552;13.436;2023-02-03T05:07:06;100861.09;;;2.68;100.00
18985;BME280;9626;52.552;13.436;2023-02-03T05:09:32;100869.03;;;2.75;100.00
18985;BME280;9626;52.552;13.436;2023-02-03T05:11:58;100861.31;;;2.82;100.00
18985;BME280;9626;52.552;13.436;2023-02-03T05:14:24;100859.69;;;2.89;100.00
18985;BME280;9626;52.552;13.436;2023-02-03T05:16:50;100860.75;;;3.05;100.00
18985;BME280;9626;52.552;13.436;2023-02-03T05:19:16;100859.09;;;3.12;100.00
18985;BME280;9626;52.552;13.436;2023-02-03T05:21:42;100858.38;;;3.20;100.00
18985;BME280;9626;52.552;13.436;2023-02-03T05:24:08;100864.50;;;3.22;100.00
18985;BME280;9626;52.552;13.436;2023-02-03T05:26:35;100848.94;;;3.36;100.00
18985;BME280;9626;52.552;13.436;2023-02-03T05:29:01;100839.50;;;3.48;100.00
18985;BME280;9626;52.552;13.436;2023-02-03T05:31:27;100844.88;;;3.60;100.00
18985;BME280;9626;52.552;13.436;2023-02-03T05:33:53;100834.47;;;3.66;100.00
18985;BME280;9626;52.552;13.436;2023-02-03T05:36:19;100838.88;;;3.70;100.00
18985;BME280;9626;52.552;13.436;2023-02-03T05:38:45;100813.75;;;3.89;100.00
18985;BME280;9626;52.552;13.436;2023-02-03T05:41:11;100826.94;;;4.00;100.00
18985;BME280;9626;52.552;13.436;2023-02-03T05:43:56;100810.38;;;4.03;100.00
18985;BME280;9626;52.552;13.436;2023-02-03T05:46:22;100800.03;;;4.17;100.00
18985;BME280;9626;52.552;13.436;2023-02-03T05:48:48;100790.47;;;4.25;100.00
18985;BME280;9626;52.552;13.436;2023-02-03T05:51:14;100788.78;;;4.33;100.00
18985;BME280;9626;52.552;13.436;2023-02-03T05:53:40;100789.72;;;4.38;100.00
18985;BME280;9626;52.552;13.436;2023-02-03T05:56:06;100796.69;;;4.38;100.00
18985;BME280;9626;52.552;13.436;2023-02-03T05:58:32;100791.50;;;4.46;100.00
18985;BME280;9626;52.552;13.436;2023-02-03T06:00:58;100784.53;;;4.48;100.00
18985;BME280;9626;52.552;13.436;2023-02-03T06:03:24;100772.34;;;4.53;100.00
18985;BME280;9626;52.552;13.436;2023-02-03T06:05:50;100759.25;;;4.57;100.00
18985;BME280;9626;52.552;13.436;2023-02-03T06:08:16;100753.19;;;4.68;100.00
18985;BME280;9626;52.552;13.436;2023-02-03T06:10:42;100755.88;;;4.85;100.00
18985;BME280;9626;52.552;13.436;2023-02-03T06:13:14;100743.63;;;4.74;100.00
18985;BME280;9626;52.552;13.436;2023-02-03T06:15:41;100746.28;;;4.87;100.00
18985;BME280;9626;52.552;13.436;2023-02-03T06:18:07;100734.03;;;4.89;100.00
18985;BME280;9626;52.552;13.436;2023-02-03T06:20:34;100734.09;;;4.94;100.00
18985;BME280;9626;52.552;13.436;2023-02-03T06:23:00;100733.22;;;4.99;100.00
18985;BME280;9626;52.552;13.436;2023-02-03T06:25:26;100729.69;;;4.97;100.00
18985;BME280;9626;52.552;13.436;2023-02-03T06:27:52;100719.25;;;5.06;100.00
18985;BME280;9626;52.552;13.436;2023-02-03T06:30:18;100722.72;;;5.01;100.00
18985;BME280;9626;52.552;13.436;2023-02-03T06:32:47;100727.97;;;5.01;100.00
18985;BME280;9626;52.552;13.436;2023-02-03T06:35:13;100733.28;;;5.15;100.00
18985;BME280;9626;52.552;13.436;2023-02-03T06:37:39;100728.88;;;5.12;100.00
18985;BME280;9626;52.552;13.436;2023-02-03T06:40:06;100718.41;;;5.21;100.00
18985;BME280;9626;52.552;13.436;2023-02-03T06:42:32;100733.31;;;5.21;100.00
18985;BME280;9626;52.552;13.436;2023-02-03T06:44:58;100727.19;;;5.27;100.00
18985;BME280;9626;52.552;13.436;2023-02-03T06:47:24;100722.81;;;5.24;100.00
18985;BME280;9626;52.552;13.436;2023-02-03T06:49:50;100697.41;;;5.23;100.00
18985;BME280;9626;52.552;13.436;2023-02-03T06:52:17;100689.53;;;5.24;100.00
18985;BME280;9626;52.552;13.436;2023-02-03T06:54:43;100690.44;;;5.28;100.00
18985;BME280;9626;52.552;13.436;2023-02-03T06:57:09;100684.31;;;5.38;100.00
18985;BME280;9626;52.552;13.436;2023-02-03T06:59:36;100674.66;;;5.33;100.00
18985;BME280;9626;52.552;13.436;2023-02-03T07:02:02;100679.06;;;5.45;100.00
18985;BME280;9626;52.552;13.436;2023-02-03T07:04:28;100671.19;;;5.48;100.00
18985;BME280;9626;52.552;13.436;2023-02-03T07:06:56;100671.19;;;5.46;100.00
18985;BME280;9626;52.552;13.436;2023-02-03T07:09:22;100679.09;;;5.54;100.00
18985;BME280;9626;52.552;13.436;2023-02-03T07:11:48;100651.06;;;5.53;100.00
18985;BME280;9626;52.552;13.436;2023-02-03T07:14:14;100654.56;;;5.52;100.00
18985;BME280;9626;52.552;13.436;2023-02-03T07:16:40;100649.31;;;5.58;100.00
18985;BME280;9626;52.552;13.436;2023-02-03T07:19:06;100639.69;;;5.58;100.00
18985;BME280;9626;52.552;13.436;2023-02-03T07:21:32;100644.06;;;5.56;100.00
18985;BME280;9626;52.552;13.436;2023-02-03T07:23:58;100651.94;;;5.63;100.00
18985;BME280;9626;52.552;13.436;2023-02-03T07:26:25;100637.94;;;5.64;100.00
18985;BME280;9626;52.552;13.436;2023-02-03T07:28:51;100624.81;;;5.59;100.00
18985;BME280;9626;52.552;13.436;2023-02-03T07:31:17;100635.31;;;5.62;100.00
18985;BME280;9626;52.552;13.436;2023-02-03T07:33:43;100615.16;;;5.64;100.00
18985;BME280;9626;52.552;13.436;2023-02-03T07:36:10;100610.78;;;5.66;100.00
18985;BME280;9626;52.552;13.436;2023-02-03T07:38:36;100602.91;;;5.69;100.00
18985;BME280;9626;52.552;13.436;2023-02-03T07:41:04;100597.66;;;5.65;100.00
18985;BME280;9626;52.552;13.436;2023-02-03T07:43:30;100608.16;;;5.68;100.00
18985;BME280;9626;52.552;13.436;2023-02-03T07:45:56;100589.75;;;5.71;100.00
18985;BME280;9626;52.552;13.436;2023-02-03T07:48:22;100588.00;;;5.68;100.00
18985;BME280;9626;52.552;13.436;2023-02-03T07:50:48;100578.38;;;5.70;100.00
18985;BME280;9626;52.552;13.436;2023-02-03T07:53:16;100570.47;;;5.76;100.00
18985;BME280;9626;52.552;13.436;2023-02-03T07:55:42;100587.13;;;5.75;100.00
18985;BME280;9626;52.552;13.436;2023-02-03T07:58:08;100560.88;;;5.75;100.00
18985;BME280;9626;52.552;13.436;2023-02-03T08:00:34;100556.47;;;5.74;100.00
18985;BME280;9626;52.552;13.436;2023-02-03T08:03:01;100570.50;;;5.80;100.00
18985;BME280;9626;52.552;13.436;2023-02-03T08:05:27;100550.31;;;5.83;100.00
18985;BME280;9626;52.552;13.436;2023-02-03T08:07:54;100555.59;;;5.80;100.00
18985;BME280;9626;52.552;13.436;2023-02-03T08:10:20;100544.22;;;5.80;100.00
18985;BME280;9626;52.552;13.436;2023-02-03T08:12:46;100543.31;;;5.81;100.00
18985;BME280;9626;52.552;13.436;2023-02-03T08:15:13;100539.81;;;5.82;100.00
18985;BME280;9626;52.552;13.436;2023-02-03T08:17:39;100530.19;;;5.84;100.00
18985;BME280;9626;52.552;13.436;2023-02-03T08:20:10;100529.31;;;5.82;100.00
18985;BME280;9626;52.552;13.436;2023-02-03T08:22:36;100526.69;;;5.82;100.00
18985;BME280;9626;52.552;13.436;2023-02-03T08:25:02;100512.66;;;5.83;100.00
18985;BME280;9626;52.552;13.436;2023-02-03T08:27:30;100510.03;;;5.81;100.00
18985;BME280;9626;52.552;13.436;2023-02-03T08:29:58;100505.66;;;5.80;100.00
18985;BME280;9626;52.552;13.436;2023-02-03T08:32:25;100503.03;;;5.80;100.00
18985;BME280;9626;52.552;13.436;2023-02-03T08:34:51;100510.03;;;5.81;100.00
18985;BME280;9626;52.552;13.436;2023-02-03T08:37:20;100503.91;;;5.81;100.00
18985;BME280;9626;52.552;13.436;2023-02-03T08:39:47;100494.28;;;5.80;100.00
18985;BME280;9626;52.552;13.436;2023-02-03T08:42:13;100499.50;;;5.84;100.00
18985;BME280;9626;52.552;13.436;2023-02-03T08:44:39;100489.00;;;5.83;100.00
18985;BME280;9626;52.552;13.436;2023-02-03T08:47:06;100503.88;;;5.87;100.00
18985;BME280;9626;52.552;13.436;2023-02-03T08:49:32;100471.50;;;5.86;100.00
18985;BME280;9626;52.552;13.436;2023-02-03T08:52:00;100474.13;;;5.88;100.00
18985;BME280;9626;52.552;13.436;2023-02-03T08:54:26;100475.84;;;5.89;100.00
18985;BME280;9626;52.552;13.436;2023-02-03T08:56:52;100471.47;;;5.88;100.00
18985;BME280;9626;52.552;13.436;2023-02-03T08:59:18;100463.59;;;5.88;100.00
18985;BME280;9626;52.552;13.436;2023-02-03T09:01:44;100461.84;;;5.88;100.00
18985;BME280;9626;52.552;13.436;2023-02-03T09:04:14;100461.81;;;5.90;100.00
18985;BME280;9626;52.552;13.436;2023-02-03T09:06:45;100452.22;;;5.90;100.00
18985;BME280;9626;52.552;13.436;2023-02-03T09:09:13;100476.72;;;5.89;100.00
18985;BME280;9626;52.552;13.436;2023-02-03T09:11:58;100443.41;;;5.91;100.00
18985;BME280;9626;52.552;13.436;2023-02-03T09:14:45;100451.31;;;5.95;100.00
18985;BME280;9626;52.552;13.436;2023-02-03T09:17:11;100451.31;;;5.98;100.00
18985;BME280;9626;52.552;13.436;2023-02-03T09:19:37;100439.91;;;5.94;100.00
18985;BME280;9626;52.552;13.436;2023-02-03T09:22:06;100434.69;;;5.99;100.00
18985;BME280;9626;52.552;13.436;2023-02-03T09:24:32;100435.50;;;6.02;100.00
18985;BME280;9626;52.552;13.436;2023-02-03T09:26:59;100427.63;;;6.07;100.00
18985;BME280;9626;52.552;13.436;2023-02-03T09:29:26;100433.75;;;6.07;100.00
18985;BME280;9626;52.552;13.436;2023-02-03T09:31:52;100437.25;;;6.09;100.00
18985;BME280;9626;52.552;13.436;2023-02-03T09:34:19;100419.72;;;6.08;100.00
18985;BME280;9626;52.552;13.436;2023-02-03T09:36:46;100447.78;;;6.09;100.00
18985;BME280;9626;52.552;13.436;2023-02-03T09:39:12;100411.78;;;6.15;100.00
18985;BME280;9626;52.552;13.436;2023-02-03T09:47:17;100392.50;;;6.16;100.00
18985;BME280;9626;52.552;13.436;2023-02-03T09:49:59;100405.63;;;6.19;100.00
18985;BME280;9626;52.552;13.436;2023-02-03T09:52:29;100394.25;;;6.18;100.00
18985;BME280;9626;52.552;13.436;2023-02-03T09:55:04;100390.72;;;6.22;100.00
18985;BME280;9626;52.552;13.436;2023-02-03T09:57:41;100378.44;;;6.24;100.00
18985;BME280;9626;52.552;13.436;2023-02-03T10:00:20;100381.00;;;6.32;100.00
18985;BME280;9626;52.552;13.436;2023-02-03T10:17:29;100332.72;;;6.44;100.00
18985;BME280;9626;52.552;13.436;2023-02-03T10:20:20;100321.25;;;6.50;100.00
18985;BME280;9626;52.552;13.436;2023-02-03T10:22:52;100315.97;;;6.53;100.00
18985;BME280;9626;52.552;13.436;2023-02-03T10:25:24;100317.75;;;6.51;100.00
18985;BME280;9626;52.552;13.436;2023-02-03T10:27:58;100321.19;;;6.59;100.00
18985;BME280;9626;52.552;13.436;2023-02-03T10:30:28;100322.84;;;6.66;100.00
18985;BME280;9626;52.552;13.436;2023-02-03T10:33:00;100336.88;;;6.65;100.00
18985;BME280;9626;52.552;13.436;2023-02-03T10:40:48;100393.19;;;6.46;100.00
18985;BME280;9626;52.552;13.436;2023-02-03T10:43:14;100420.44;;;6.38;100.00
18985;BME280;9626;52.552;13.436;2023-02-03T10:45:59;100444.16;;;6.23;100.00
18985;BME280;9626;52.552;13.436;2023-02-03T10:48:26;100425.97;;;5.76;100.00
18985;BME280;9626;52.552;13.436;2023-02-03T10:50:53;100407.63;;;5.64;100.00
18985;BME280;9626;52.552;13.436;2023-02-03T10:53:34;100393.66;;;5.53;100.00
18985;BME280;9626;52.552;13.436;2023-02-03T10:56:11;100395.44;;;5.48;100.00
18985;BME280;9626;52.552;13.436;2023-02-03T10:58:46;100377.91;;;5.53;100.00
18985;BME280;9626;52.552;13.436;2023-02-03T11:01:15;100374.31;;;5.69;100.00
18985;BME280;9626;52.552;13.436;2023-02-03T11:06:23;100388.31;;;5.70;100.00
18985;BME280;9626;52.552;13.436;2023-02-03T11:08:50;100381.34;;;5.67;100.00
18985;BME280;9626;52.552;13.436;2023-02-03T11:11:22;100379.59;;;5.66;100.00
18985;BME280;9626;52.552;13.436;2023-02-03T11:13:54;100368.19;;;5.70;100.00
18985;BME280;9626;52.552;13.436;2023-02-03T11:16:22;100361.19;;;5.75;100.00
18985;BME280;9626;52.552;13.436;2023-02-03T11:19:04;100362.91;;;5.81;100.00
18985;BME280;9626;52.552;13.436;2023-02-03T11:27:04;100354.06;;;5.99;100.00
18985;BME280;9626;52.552;13.436;2023-02-03T11:30:38;100360.19;;;6.03;100.00
18985;BME280;9626;52.552;13.436;2023-02-03T11:32:40;100356.59;;;6.12;100.00
18985;BME280;9626;52.552;13.436;2023-02-03T11:35:22;100350.50;;;6.09;100.00
18985;BME280;9626;52.552;13.436;2023-02-03T11:37:54;100356.53;;;6.22;100.00
18985;BME280;9626;52.552;13.436;2023-02-03T11:45:26;100365.31;;;6.20;100.00
18985;BME280;9626;52.552;13.436;2023-02-03T11:53:21;100364.03;;;6.70;100.00
18985;BME280;9626;52.552;13.436;2023-02-03T11:56:04;100355.94;;;6.92;100.00
18985;BME280;9626;52.552;13.436;2023-02-03T11:58:51;100356.22;;;7.48;100.00
18985;BME280;9626;52.552;13.436;2023-02-03T12:15:27;100359.38;;;7.76;100.00
18985;BME280;9626;52.552;13.436;2023-02-03T12:23:44;100345.03;;;7.98;100.00
18985;BME280;9626;52.552;13.436;2023-02-03T12:26:55;100353.84;;;7.95;100.00
18985;BME280;9626;52.552;13.436;2023-02-03T12:29:36;100353.75;;;8.01;100.00
18985;BME280;9626;52.552;13.436;2023-02-03T12:32:25;100349.06;;;7.56;100.00
18985;BME280;9626;52.552;13.436;2023-02-03T12:37:29;100349.97;;;7.54;100.00
18985;BME280;9626;52.552;13.436;2023-02-03T12:40:04;100353.28;;;7.71;100.00
18985;BME280;9626;52.552;13.436;2023-02-03T12:42:48;100341.84;;;8.33;100.00
18985;BME280;9626;52.552;13.436;2023-02-03T12:45:20;100336.91;;;8.11;100.00
18985;BME280;9626;52.552;13.436;2023-02-03T12:50:28;100368.44;;;7.54;100.00
18985;BME280;9626;52.552;13.436;2023-02-03T12:53:01;100449.53;;;7.24;100.00
18985;BME280;9626;52.552;13.436;2023-02-03T12:55:38;100467.06;;;5.93;100.00
18985;BME280;9626;52.552;13.436;2023-02-03T12:58:06;100502.22;;;4.56;100.00
18985;BME280;9626;52.552;13.436;2023-02-03T13:00:48;100516.00;;;3.93;100.00
18985;BME280;9626;52.552;13.436;2023-02-03T13:03:25;100511.66;;;4.01;100.00
18985;BME280;9626;52.552;13.436;2023-02-03T13:06:05;100493.31;;;3.98;100.00
18985;BME280;9626;52.552;13.436;2023-02-03T13:14:09;100482.94;;;4.42;100.00
18985;BME280;9626;52.552;13.436;2023-02-03T13:16:41;100489.94;;;4.38;100.00
18985;BME280;9626;52.552;13.436;2023-02-03T13:19:17;100496.91;;;4.37;100.00
18985;BME280;9626;52.552;13.436;2023-02-03T13:21:48;100500.44;;;4.39;100.00
18985;BME280;9626;52.552;13.436;2023-02-03T13:24:14;100513.53;;;4.44;100.00
18985;BME280;9626;52.552;13.436;2023-02-03T13:40:42;100477.75;;;5.27;100.00
18985;BME280;9626;52.552;13.436;2023-02-03T13:43:20;100461.78;;;6.08;100.00
18985;BME280;9626;52.552;13.436;2023-02-03T13:45:50;100475.56;;;6.54;100.00
18985;BME280;9626;52.552;13.436;2023-02-03T13:48:23;100464.03;;;6.70;100.00
18985;BME280;9626;52.552;13.436;2023-02-03T13:51:04;100463.19;;;6.68;100.00
18985;BME280;9626;52.552;13.436;2023-02-03T13:53:37;100469.38;;;6.63;100.00
18985;BME280;9626;52.552;13.436;2023-02-03T13:56:06;100463.47;;;6.19;100.00
18985;BME280;9626;52.552;13.436;2023-02-03T13:58:37;100456.50;;;6.12;100.00
18985;BME280;9626;52.552;13.436;2023-02-03T14:01:30;100457.19;;;6.49;100.00
18985;BME280;9626;52.552;13.436;2023-02-03T14:03:59;100454.56;;;6.49;100.00
18985;BME280;9626;52.552;13.436;2023-02-03T14:12:19;100451.59;;;6.89;100.00
18985;BME280;9626;52.552;13.436;2023-02-03T14:19:59;100470.13;;;6.79;100.00
18985;BME280;9626;52.552;13.436;2023-02-03T14:22:25;100478.16;;;6.62;100.00
18985;BME280;9626;52.552;13.436;2023-02-03T14:24:57;100463.19;;;6.68;100.00
18985;BME280;9626;52.552;13.436;2023-02-03T14:27:29;100470.00;;;6.94;100.00
18985;BME280;9626;52.552;13.436;2023-02-03T14:30:08;100482.94;;;7.20;100.00
18985;BME280;9626;52.552;13.436;2023-02-03T14:32:55;100483.75;;;7.28;100.00
18985;BME280;9626;52.552;13.436;2023-02-03T14:35:29;100476.00;;;7.13;100.00
18985;BME280;9626;52.552;13.436;2023-02-03T14:38:05;100468.34;;;6.77;100.00
18985;BME280;9626;52.552;13.436;2023-02-03T14:40:34;100473.69;;;6.70;100.00
18985;BME280;9626;52.552;13.436;2023-02-03T14:45:48;100466.75;;;6.63;100.00
18985;BME280;9626;52.552;13.436;2023-02-03T14:48:50;100463.94;;;6.84;100.00
18985;BME280;9626;52.552;13.436;2023-02-03T14:56:42;100476.50;;;6.40;100.00
18985;BME280;9626;52.552;13.436;2023-02-03T15:00:35;100483.50;;;6.43;100.00
18985;BME280;9626;52.552;13.436;2023-02-03T15:02:31;100471.25;;;6.43;100.00
18985;BME280;9626;52.552;13.436;2023-02-03T15:07:43;100499.34;;;6.37;100.00
18985;BME280;9626;52.552;13.436;2023-02-03T15:12:47;100498.47;;;6.32;100.00
18985;BME280;9626;52.552;13.436;2023-02-03T15:15:28;100486.19;;;6.34;100.00